Home > Products > Valid Products > TAF

000
FTUS45 KGJT 291911 AAD
TAFGJT
TAF AMD
KGJT 291911Z 2919/3018 29007KT P6SM BKN090
      TEMPO 2919/2921 31010G25KT
     FM292100 29008KT P6SM -SHRA BKN090
     FM292300 32007KT P6SM BKN110
     FM300200 08005KT P6SM BKN100
     FM300500 14004KT P6SM BKN110=



000
FTUS45 KGJT 291746 AAE
TAFGJT
TAF AMD
KGJT 291746Z 2918/3012 29007KT P6SM VCSH BKN100
      TEMPO 2918/2919 -RA BKN060
     FM291900 29007KT P6SM BKN090
     FM292000 29008KT P6SM -SHRA BKN090
     FM292300 32007KT P6SM BKN110
     FM300200 08005KT P6SM BKN100
     FM300500 14004KT P6SM BKN110=



000
FTUS45 KGJT 291719 AAG
TAFGJT
TAF AMD
KGJT 291719Z 2917/3012 29007KT P6SM VCSH BKN100
     FM291900 29007KT P6SM BKN090
     FM292000 29008KT P6SM -SHRA BKN090
     FM292300 32007KT P6SM BKN110
     FM300200 08005KT P6SM BKN100
     FM300500 14004KT P6SM BKN110=



000
FTUS45 KGJT 291136 AAC
TAFGJT
TAF AMD
KGJT 291136Z 2912/3012 01005KT P6SM SCT030 BKN100
     FM291400 14005KT P6SM VCSH BKN110
     FM291800 29007KT P6SM VCSH BKN090
     FM292000 29008KT P6SM BKN110
     FM292300 32007KT P6SM BKN100
     FM300500 14004KT P6SM BKN090=



000
FTUS45 KGJT 291136 AAC
TAFGJT
TAF AMD
KGJT 291136Z 2912/3012 01005KT P6SM SCT030 BKN100
     FM291400 14005KT P6SM VCSH BKN110
     FM291800 29007KT P6SM VCSH BKN090
     FM292000 29008KT P6SM BKN110
     FM292300 32007KT P6SM BKN100
     FM300500 14004KT P6SM BKN090=



000
FTUS45 KGJT 290538
TAFGJT
TAF
KGJT 290538Z 2906/3006 11004KT P6SM BKN130
     FM291100 13005KT P6SM BKN110
     FM291600 25007KT P6SM VCSH BKN080
     FM292000 28009KT P6SM VCSH BKN070
     FM300200 29010KT P6SM VCSH BKN080=



000
FTUS45 KGJT 290154 AAC
TAFGJT
TAF AMD
KGJT 290154Z 2902/2924 27006KT P6SM VCSH SCT060 BKN110
      TEMPO 2902/2903 VRB10KT -TSRA SCT035 BKN050CB
     FM290300 08008KT P6SM SCT070 BKN100
     FM291400 12005KT P6SM BKN100
     FM292000 29010KT P6SM VCSH BKN070=



000
FTUS45 KGJT 282345
TAFGJT
TAF
KGJT 282345Z 2900/2924 30011KT P6SM VCSH SCT030 BKN060 OVC070
     FM290300 08008KT P6SM SCT070 BKN100
     FM291400 12005KT P6SM BKN100
     FM292000 29010KT P6SM VCSH BKN070=



000
FTUS45 KGJT 282345
TAFGJT
TAF
KGJT 282345Z 2900/2924 30011KT P6SM VCSH SCT030 BKN060 OVC070
     FM290300 08008KT P6SM SCT070 BKN100
     FM291400 12005KT P6SM BKN100
     FM292000 29010KT P6SM VCSH BKN070=



000
FTUS45 KGJT 281846 AAG
TAFGJT
TAF AMD
KGJT 281846Z 2819/2918 32007KT P6SM VCTS BKN060CB
      TEMPO 2819/2822 VRB15G25KT -SHRA BKN020
     FM290200 09010KT P6SM VCSH BKN070
     FM291600 21008KT P6SM VCSH OVC060=



000
FTUS45 KGJT 281846 AAG
TAFGJT
TAF AMD
KGJT 281846Z 2819/2918 32007KT P6SM VCTS BKN060CB
      TEMPO 2819/2822 VRB15G25KT -SHRA BKN020
     FM290200 09010KT P6SM VCSH BKN070
     FM291600 21008KT P6SM VCSH OVC060=



000
FTUS45 KGJT 281731 AAE
TAFGJT
TAF AMD
KGJT 281731Z 2818/2918 32007KT P6SM VCTS BKN060CB
      TEMPO 2818/2822 -SHRA BKN020
     FM290200 09010KT P6SM VCSH BKN070
     FM291600 21008KT P6SM VCSH OVC060=



000
FTUS45 KGJT 281522 AAD
TAFGJT
TAF AMD
KGJT 281522Z 2815/2912 11006KT P6SM VCSH SCT030 BKN050
     FM281700 21006KT P6SM -SHRA BKN080
     FM290100 34010KT P6SM VCSH BKN100
     FM290600 11006KT P6SM VCSH BKN070=



000
FTUS45 KGJT 281519 AAC
TAFGJT
TAF AMD
KGJT 281519Z 2815/2912 11006KT 3SM -SN SCT010 BKN020
     FM281700 21006KT P6SM -SHRA BKN080
     FM290100 34010KT P6SM VCSH BKN100
     FM290600 11006KT P6SM VCSH BKN070=



000
FTUS45 KGJT 281519 AAC
TAFGJT
TAF AMD
KGJT 281519Z 2815/2912 11006KT 3SM -SN SCT010 BKN020
     FM281700 21006KT P6SM -SHRA BKN080
     FM290100 34010KT P6SM VCSH BKN100
     FM290600 11006KT P6SM VCSH BKN070=



000
FTUS45 KGJT 281304 AAD
TAFGJT
TAF AMD
KGJT 281304Z 2813/2912 00000KT P6SM -RA OVC045
      TEMPO 2813/2815 3SM RA BR BKN010
     FM281500 11006KT P6SM VCSH OVC090
     FM281700 21006KT P6SM -SHRA BKN080
     FM290100 34010KT P6SM VCSH BKN100
     FM290600 11006KT P6SM VCSH BKN070=



000
FTUS45 KGJT 281224 AAC
TAFGJT
TAF AMD
KGJT 281224Z 2812/2912 00000KT P6SM -RA OVC045
      TEMPO 2812/2814 5SM RA BKN020
     FM281500 11006KT P6SM VCSH OVC090
     FM281700 21006KT P6SM -SHRA BKN080
     FM290100 34010KT P6SM VCSH BKN100
     FM290600 11006KT P6SM VCSH BKN070=



000
FTUS45 KGJT 281143 AAC
TAFGJT
TAF AMD
KGJT 281143Z 2812/2912 00000KT P6SM -RA OVC045
      TEMPO 2812/2814 5SM RA SCT035 BKN040
     FM281500 11006KT P6SM VCSH OVC090
     FM281700 21006KT P6SM -SHRA BKN080
     FM290100 34010KT P6SM VCSH BKN100
     FM290600 11006KT P6SM VCSH BKN070=



000
FTUS45 KGJT 280520
TAFGJT
TAF
KGJT 280520Z 2806/2906 11008KT P6SM VCSH BKN100
     FM281000 10005KT P6SM VCSH OVC060
     FM281200 11006KT P6SM -SHRA OVC040
     FM281600 19006KT P6SM VCSH BKN060
     FM282100 26008KT P6SM VCSH BKN080
     FM290500 09004KT P6SM BKN090=



000
FTUS45 KGJT 272337
TAFGJT
TAF
KGJT 272337Z 2800/2824 VRB03KT P6SM BKN060
     FM280200 11010KT P6SM VCSH BKN060
     FM281500 11006KT P6SM VCSH OVC045
     FM281700 19006KT P6SM -SHRA BKN045
     FM282000 23008KT P6SM -SHRA BKN060=



000
FTUS45 KGJT 271743 AAC
TAFGJT
TAF AMD
KGJT 271743Z 2718/2818 36004KT P6SM SCT025 SCT035 BKN070
      TEMPO 2718/2720 BKN035
     FM272000 36006KT P6SM SCT035 BKN090
     FM280100 15008KT P6SM BKN070
     FM280600 11006KT P6SM VCSH BKN080
     FM281700 26004KT P6SM VCSH BKN060=



000
FTUS45 KGJT 271136 AAB
TAFGJT
TAF AMD
KGJT 271136Z 2712/2812 13004KT P6SM SCT090
     FM271700 17005KT P6SM BKN130
     FM272200 00000KT P6SM BKN150
     FM280300 02006KT P6SM BKN080
     FM280600 11007KT P6SM VCSH BKN080=



000
FTUS45 KGJT 270522
TAFGJT
TAF
KGJT 270522Z 2706/2806 10003KT P6SM BKN100
     FM271400 14005KT P6SM SCT120
     FM271900 30006KT P6SM BKN100
     FM280200 09007KT P6SM BKN100=



000
FTUS45 KGJT 262340
TAFGJT
TAF
KGJT 262340Z 2700/2724 36005KT P6SM VCSH SCT025 BKN035 OVC045
     FM270200 08005KT P6SM BKN050
     FM271200 10004KT P6SM SCT050
     FM271500 14005KT P6SM SCT060
     FM271900 VRB03KT P6SM SCT060 BKN090=



000
FTUS45 KGJT 262058 AAB
TAFGJT
TAF AMD
KGJT 262058Z 2621/2718 16005KT P6SM -RA BKN025 BKN030 OVC040
      TEMPO 2621/2622 2SM +SHRA BR BKN015 OVC020
     FM262300 30008KT P6SM OVC060
     FM270100 33007KT P6SM BKN090
     FM270200 02006KT P6SM BKN090
     FM270600 06006KT P6SM BKN080
     FM271200 09006KT P6SM SCT050
     FM271600 16004KT P6SM SCT080=



000
FTUS45 KGJT 262018 AAA
TAFGJT
TAF AMD
KGJT 262018Z 2620/2718 16005KT P6SM -RA BKN025 BKN030 OVC040
     FM262300 30008KT P6SM OVC060
     FM270100 33007KT P6SM BKN090
     FM270200 02006KT P6SM BKN090
     FM270600 06006KT P6SM BKN080
     FM271200 09006KT P6SM SCT050
     FM271600 16004KT P6SM SCT080=



000
FTUS45 KGJT 262018 AAA
TAFGJT
TAF AMD
KGJT 262018Z 2620/2718 16005KT P6SM -RA BKN025 BKN030 OVC040
     FM262300 30008KT P6SM OVC060
     FM270100 33007KT P6SM BKN090
     FM270200 02006KT P6SM BKN090
     FM270600 06006KT P6SM BKN080
     FM271200 09006KT P6SM SCT050
     FM271600 16004KT P6SM SCT080=



    US Dept of Commerce
    National Oceanic and Atmospheric Administration
    National Weather Service
    1325 East West Highway
    Silver Spring, MD 20910
    Page Author: NWS Internet Services Team
Disclaimer
Information Quality
Credits
Glossary
Privacy Policy
Freedom of Information Act (FOIA)
About Us
Career Opportunities